Time;durP1;ratioP1;P1;durP2;ratioP2;P2;SDS_P1;SDS_P2;PMS_P1;PMS_P2;Temp;Humidity;BMP_temperature;BMP_pressure;BME280_temperature;BME280_humidity;BME280_pressure;Samples;Min_cycle;Max_cycle;Signal;HPM_P1;HPM_P2
2022/09/09 00:00:15;;;;;;;1.30;0.70;;;;;;;15.28;92.71;99846.56;5053247;28;20212;-76
2022/09/09 00:02:47;;;;;;;0.90;0.90;;;;;;;15.29;92.88;99829.84;5054028;28;20259;-76
2022/09/09 00:05:27;;;;;;;1.90;0.97;;;;;;;15.27;92.97;99836.13;5045409;28;20698;-76
2022/09/09 00:07:56;;;;;;;2.10;0.80;;;;;;;15.22;93.21;99831.09;5045922;28;20215;-76
2022/09/09 00:10:28;;;;;;;2.00;0.90;;;;;;;15.18;93.31;99824.28;5052549;28;20212;-76
2022/09/09 00:13:01;;;;;;;0.63;0.63;;;;;;;15.20;93.07;99821.56;5045436;28;20197;-76
2022/09/09 00:15:33;;;;;;;0.83;0.50;;;;;;;15.15;93.07;99826.19;5043825;28;20233;-76
2022/09/09 00:18:09;;;;;;;0.63;0.63;;;;;;;15.18;93.13;99824.28;5043733;28;20679;-75
2022/09/09 00:20:41;;;;;;;1.27;0.80;;;;;;;15.16;93.39;99820.00;5043910;28;20271;-76
2022/09/09 00:23:15;;;;;;;0.77;0.67;;;;;;;15.16;93.28;99820.84;5043825;28;20598;-76
2022/09/09 00:25:49;;;;;;;0.97;0.70;;;;;;;15.07;93.18;99813.41;5043845;28;20295;-76
2022/09/09 00:28:20;;;;;;;1.53;0.80;;;;;;;15.04;93.65;99814.41;5043913;28;20213;-76
2022/09/09 00:30:49;;;;;;;0.90;0.90;;;;;;;15.05;93.05;99818.75;5041056;28;20198;-76
2022/09/09 00:33:18;;;;;;;0.87;0.70;;;;;;;15.05;93.29;99812.63;5042831;28;20191;-76
2022/09/09 00:35:47;;;;;;;1.40;0.80;;;;;;;15.03;93.47;99809.22;5041131;28;20194;-76
2022/09/09 00:38:17;;;;;;;2.43;1.00;;;;;;;15.03;93.68;99804.81;5046605;28;20551;-76
2022/09/09 00:40:52;;;;;;;2.27;0.73;;;;;;;14.97;93.94;99802.47;5052470;28;20240;-76
2022/09/09 00:43:30;;;;;;;3.03;0.80;;;;;;;14.96;94.46;99786.78;5044154;28;20224;-76
2022/09/09 00:46:11;;;;;;;0.93;0.50;;;;;;;15.02;94.29;99786.47;5041534;28;20258;-76
2022/09/09 00:48:48;;;;;;;1.30;1.20;;;;;;;14.99;94.58;99789.28;5040724;28;20204;-76
2022/09/09 00:51:18;;;;;;;1.33;0.50;;;;;;;14.94;94.75;99781.59;5043163;28;20197;-77
2022/09/09 00:54:10;;;;;;;1.20;0.70;;;;;;;14.91;94.75;99781.75;5043135;28;20224;-77
2022/09/09 00:56:44;;;;;;;1.80;1.03;;;;;;;14.89;94.39;99780.97;5042627;28;20293;-76
2022/09/09 00:59:22;;;;;;;0.90;0.47;;;;;;;14.88;93.85;99795.03;5043437;28;20201;-77
2022/09/09 01:01:49;;;;;;;1.57;0.60;;;;;;;14.83;93.79;99794.41;5042829;28;20221;-76
2022/09/09 01:04:24;;;;;;;1.67;0.60;;;;;;;14.83;94.11;99792.63;5042223;28;20731;-77
2022/09/09 01:07:01;;;;;;;0.97;0.70;;;;;;;14.83;93.68;99804.91;5042559;28;20200;-77
2022/09/09 01:09:36;;;;;;;0.87;0.70;;;;;;;14.75;93.43;99825.44;5049252;28;20245;-77
2022/09/09 01:12:12;;;;;;;1.00;0.63;;;;;;;14.72;93.39;99820.31;5048060;28;20208;-77
2022/09/09 01:14:45;;;;;;;1.67;0.83;;;;;;;14.65;93.69;99817.97;5042348;28;20707;-77
2022/09/09 01:17:17;;;;;;;2.93;0.60;;;;;;;14.66;93.70;99817.03;5047264;28;20248;-77
2022/09/09 01:19:55;;;;;;;1.17;0.70;;;;;;;14.66;93.59;99824.06;5040379;28;20222;-77
2022/09/09 01:22:34;;;;;;;1.20;0.63;;;;;;;14.62;93.16;99833.84;5040294;28;20575;-77
2022/09/09 01:25:29;;;;;;;1.43;0.60;;;;;;;14.60;93.06;99827.81;5040578;28;20256;-77
2022/09/09 01:27:59;;;;;;;0.53;0.53;;;;;;;14.60;93.59;99817.31;5042231;28;20258;-76
2022/09/09 01:30:28;;;;;;;2.60;0.97;;;;;;;14.56;93.29;99810.50;5042817;28;20255;-76
2022/09/09 01:32:58;;;;;;;1.40;0.67;;;;;;;14.57;93.42;99808.72;5041707;28;20217;-76
2022/09/09 01:35:35;;;;;;;2.50;0.70;;;;;;;14.59;93.31;99812.13;5040129;28;20218;-77
2022/09/09 01:38:01;;;;;;;1.00;0.90;;;;;;;14.59;93.13;99812.13;5043001;28;20205;-77
2022/09/09 01:40:28;;;;;;;0.60;0.60;;;;;;;14.56;92.81;99817.50;5051198;28;20201;-77
2022/09/09 01:42:57;;;;;;;0.83;0.60;;;;;;;14.55;93.00;99821.91;5044011;28;20235;-77
2022/09/09 01:45:24;;;;;;;2.97;0.80;;;;;;;14.53;93.42;99813.25;5042059;28;20733;-77
2022/09/09 01:47:52;;;;;;;1.23;0.87;;;;;;;14.52;92.87;99816.78;5039959;28;20654;-76
2022/09/09 01:50:19;;;;;;;1.93;0.80;;;;;;;14.46;93.25;99815.28;5042430;28;20198;-76
2022/09/09 01:52:50;;;;;;;0.70;0.70;;;;;;;14.48;93.29;99818.69;5040035;28;20206;-77
2022/09/09 01:55:21;;;;;;;1.03;0.77;;;;;;;14.47;93.29;99819.63;5040729;28;20229;-77
2022/09/09 01:57:56;;;;;;;0.80;0.80;;;;;;;14.46;93.11;99824.94;5042138;28;20291;-77
2022/09/09 02:00:25;;;;;;;1.20;0.67;;;;;;;14.42;93.15;99824.22;5042362;28;20201;-77
2022/09/09 02:03:01;;;;;;;1.90;0.90;;;;;;;14.45;93.34;99818.84;5040643;28;20204;-76
2022/09/09 02:05:37;;;;;;;1.43;0.80;;;;;;;14.44;92.93;99821.53;5042898;28;20218;-77
2022/09/09 02:08:07;;;;;;;1.50;0.60;;;;;;;14.46;93.24;99823.16;5042569;28;20212;-77
2022/09/09 02:10:41;;;;;;;1.07;0.60;;;;;;;14.49;92.88;99822.19;5048450;28;20197;-76
2022/09/09 02:13:12;;;;;;;1.47;0.70;;;;;;;14.53;92.93;99825.50;5048546;28;20212;-77
2022/09/09 02:15:46;;;;;;;0.97;0.60;;;;;;;14.50;93.01;99829.97;5049846;28;20567;-77
2022/09/09 02:18:16;;;;;;;5.67;1.07;;;;;;;14.48;92.80;99818.69;5051460;28;20219;-77
2022/09/09 02:20:45;;;;;;;1.43;0.70;;;;;;;14.52;93.41;99818.56;5050961;28;20208;-77
2022/09/09 02:23:15;;;;;;;0.70;0.70;;;;;;;14.54;93.39;99817.56;5052101;28;20278;-77
2022/09/09 02:25:44;;;;;;;2.90;1.00;;;;;;;14.47;93.27;99814.38;5055037;28;20197;-77
2022/09/09 02:28:13;;;;;;;2.13;0.83;;;;;;;14.53;93.17;99820.25;5055022;28;20213;-77
2022/09/09 02:30:43;;;;;;;2.63;1.13;;;;;;;14.57;93.08;99817.47;5055165;28;20205;-77
2022/09/09 02:33:12;;;;;;;0.70;0.70;;;;;;;14.59;92.26;99827.88;5055127;28;20666;-76
2022/09/09 02:35:41;;;;;;;0.83;0.83;;;;;;;14.56;92.38;99834.13;5055207;28;20205;-77
2022/09/09 02:38:12;;;;;;;3.53;0.90;;;;;;;14.56;92.58;99831.50;5055068;28;20205;-78
2022/09/09 02:40:39;;;;;;;1.37;0.70;;;;;;;14.57;92.46;99820.09;5054870;28;20212;-77
2022/09/09 02:43:06;;;;;;;2.20;0.80;;;;;;;14.57;92.52;99824.47;5054979;28;20486;-76
2022/09/09 02:45:39;;;;;;;0.93;0.60;;;;;;;14.55;92.91;99811.41;5054813;28;20233;-75
2022/09/09 02:48:15;;;;;;;0.70;0.60;;;;;;;14.57;92.97;99806.09;5054739;28;20215;-76
2022/09/09 02:50:53;;;;;;;1.33;0.80;;;;;;;14.63;92.58;99819.81;5054744;28;20697;-77
2022/09/09 02:53:24;;;;;;;0.93;0.63;;;;;;;14.62;93.12;99810.22;5054589;28;20258;-77
2022/09/09 02:55:56;;;;;;;0.60;0.60;;;;;;;14.64;93.30;99808.38;5054753;28;20202;-76
2022/09/09 02:58:24;;;;;;;1.33;0.70;;;;;;;14.63;93.92;99785.66;5054857;28;20205;-77
2022/09/09 03:00:52;;;;;;;2.63;0.90;;;;;;;14.67;94.12;99787.22;5054690;28;20233;-77
2022/09/09 03:03:21;;;;;;;1.17;0.70;;;;;;;14.71;94.62;99764.31;5054420;28;20312;-77
2022/09/09 03:05:48;;;;;;;0.80;0.70;;;;;;;14.75;94.69;99767.66;5054415;28;20248;-77
2022/09/09 03:08:15;;;;;;;0.77;0.73;;;;;;;14.68;95.01;99761.81;5053459;28;20587;-76
2022/09/09 03:10:41;;;;;;;2.30;0.90;;;;;;;14.70;94.74;99758.16;5054499;28;20205;-77
2022/09/09 03:13:08;;;;;;;2.40;1.10;;;;;;;14.71;94.51;99777.44;5054494;28;20221;-77
2022/09/09 03:15:35;;;;;;;2.37;0.97;;;;;;;14.67;94.65;99774.09;5054041;28;20225;-77
2022/09/09 03:18:02;;;;;;;2.43;1.00;;;;;;;14.66;94.79;99777.63;5054405;28;20201;-77
2022/09/09 03:20:30;;;;;;;2.87;1.20;;;;;;;14.69;95.62;99769.63;5054333;28;20202;-77
2022/09/09 03:22:59;;;;;;;2.60;1.13;;;;;;;14.69;95.46;99767.00;5054150;28;20205;-77
2022/09/09 03:25:26;;;;;;;1.83;1.10;;;;;;;14.61;96.35;99753.38;5054008;28;20240;-77
2022/09/09 03:27:54;;;;;;;1.77;1.17;;;;;;;14.68;96.62;99732.91;5054165;28;20217;-77
2022/09/09 03:30:21;;;;;;;1.83;0.90;;;;;;;14.76;96.75;99722.88;5054176;28;20212;-77
2022/09/09 03:32:48;;;;;;;2.70;0.90;;;;;;;14.79;96.88;99735.03;5054307;28;20215;-77
2022/09/09 03:35:15;;;;;;;1.23;0.80;;;;;;;14.84;97.00;99722.53;5052941;28;20221;-77
2022/09/09 03:37:43;;;;;;;1.33;0.90;;;;;;;14.82;97.74;99714.69;5054013;28;20694;-77
2022/09/09 03:40:10;;;;;;;4.33;1.00;;;;;;;14.85;97.05;99724.25;5053899;28;20205;-77
2022/09/09 03:42:37;;;;;;;1.67;1.00;;;;;;;14.84;97.45;99709.38;5053908;28;20667;-77
2022/09/09 03:45:04;;;;;;;1.43;0.80;;;;;;;14.77;97.96;99708.84;5053482;28;20237;-77
2022/09/09 03:47:31;;;;;;;2.03;0.90;;;;;;;14.85;97.28;99714.56;5053727;28;20209;-77
2022/09/09 03:49:57;;;;;;;3.10;1.03;;;;;;;14.74;97.01;99724.72;5053586;28;20214;-77
2022/09/09 03:52:25;;;;;;;2.37;1.10;;;;;;;14.85;97.49;99721.59;5053872;28;20212;-77
2022/09/09 03:54:54;;;;;;;4.87;1.10;;;;;;;14.86;96.31;99750.41;5053304;28;20710;-77
2022/09/09 03:57:20;;;;;;;1.90;1.10;;;;;;;14.91;96.58;99747.59;5053759;28;20629;-77
2022/09/09 03:59:46;;;;;;;2.07;1.20;;;;;;;14.98;96.56;99748.13;5053585;28;20216;-77
2022/09/09 04:02:13;;;;;;;1.90;1.10;;;;;;;14.96;97.50;99726.34;5053924;28;20205;-77
2022/09/09 04:04:39;;;;;;;1.53;1.03;;;;;;;14.98;97.69;99717.44;5053261;28;20245;-77
2022/09/09 04:07:06;;;;;;;1.00;0.80;;;;;;;15.03;97.62;99725.13;5053452;28;20233;-77
2022/09/09 04:09:33;;;;;;;2.43;1.13;;;;;;;14.98;97.83;99732.38;5053218;28;20206;-77
2022/09/09 04:12:01;;;;;;;2.00;1.20;;;;;;;14.97;96.26;99757.81;5053500;28;20247;-77
2022/09/09 04:14:28;;;;;;;2.63;1.00;;;;;;;15.06;95.79;99777.53;5053223;28;20225;-77
2022/09/09 04:16:57;;;;;;;2.00;1.00;;;;;;;15.13;95.89;99773.69;5052956;28;20252;-77
2022/09/09 04:19:23;;;;;;;1.70;0.90;;;;;;;15.19;96.45;99773.38;5053356;28;20259;-76
2022/09/09 04:21:51;;;;;;;0.80;0.80;;;;;;;15.14;97.39;99750.88;5053014;28;20410;-77
2022/09/09 04:24:18;;;;;;;1.33;1.23;;;;;;;15.14;97.51;99738.56;5053024;28;20229;-77
2022/09/09 04:26:45;;;;;;;2.27;1.00;;;;;;;15.18;97.83;99741.91;5052896;28;20248;-77
2022/09/09 04:29:13;;;;;;;1.73;1.00;;;;;;;15.12;97.87;99729.91;5052889;28;20221;-77
2022/09/09 04:31:41;;;;;;;2.47;1.20;;;;;;;15.16;97.95;99743.75;5052718;28;20209;-77
2022/09/09 04:34:08;;;;;;;2.33;1.10;;;;;;;15.19;97.87;99736.56;5052764;28;20221;-77
2022/09/09 04:36:34;;;;;;;1.77;1.10;;;;;;;15.21;97.69;99747.03;5052930;28;20250;-77
2022/09/09 04:39:01;;;;;;;1.13;0.97;;;;;;;15.14;98.03;99742.97;5052776;28;20209;-77
2022/09/09 04:41:28;;;;;;;7.43;1.03;;;;;;;15.15;97.72;99753.44;5052652;28;20288;-77
2022/09/09 04:43:55;;;;;;;2.13;1.10;;;;;;;15.16;97.44;99756.91;5052691;28;20237;-77
2022/09/09 04:46:23;;;;;;;1.53;1.20;;;;;;;15.18;97.56;99755.03;5051660;28;20212;-77
2022/09/09 04:48:50;;;;;;;2.23;1.03;;;;;;;15.23;97.48;99761.78;5052708;28;20300;-77
2022/09/09 04:51:22;;;;;;;2.93;1.00;;;;;;;15.24;97.66;99755.63;5052597;28;20683;-77
2022/09/09 04:53:50;;;;;;;4.10;1.20;;;;;;;15.23;98.01;99753.91;5052622;28;20240;-77
2022/09/09 04:56:18;;;;;;;3.47;1.57;;;;;;;15.21;97.91;99750.50;5052403;28;20205;-77
2022/09/09 04:58:45;;;;;;;5.27;1.43;;;;;;;15.19;98.45;99743.63;5052265;28;20202;-77
2022/09/09 05:01:13;;;;;;;1.23;1.03;;;;;;;15.19;98.86;99739.22;5052366;28;20252;-76
2022/09/09 05:03:41;;;;;;;2.00;1.00;;;;;;;15.20;98.98;99734.78;5052334;28;20229;-77
2022/09/09 05:06:10;;;;;;;1.67;1.33;;;;;;;15.25;98.74;99746.78;5052205;28;20205;-77
2022/09/09 05:08:37;;;;;;;1.50;1.27;;;;;;;15.24;98.69;99752.13;5052566;28;20266;-77
2022/09/09 05:11:04;;;;;;;1.60;1.20;;;;;;;15.28;98.52;99748.41;5051939;28;20243;-77
2022/09/09 05:13:31;;;;;;;2.37;0.83;;;;;;;15.32;98.38;99755.25;5052340;28;20210;-76
2022/09/09 05:15:58;;;;;;;1.10;1.00;;;;;;;15.28;99.50;99745.78;5052052;28;20210;-77
2022/09/09 05:18:25;;;;;;;2.53;1.17;;;;;;;15.29;99.37;99740.44;5052145;28;20625;-77
2022/09/09 05:20:52;;;;;;;1.03;1.03;;;;;;;15.35;99.38;99741.91;5052117;28;20271;-77
2022/09/09 05:23:19;;;;;;;1.73;1.13;;;;;;;15.37;99.31;99744.47;5052050;28;20251;-78
2022/09/09 05:25:56;;;;;;;1.10;1.00;;;;;;;15.41;98.87;99749.50;5051643;28;20225;-77
2022/09/09 05:28:24;;;;;;;1.07;1.03;;;;;;;15.35;98.49;99760.34;5052019;28;20263;-76
2022/09/09 05:30:57;;;;;;;1.83;1.10;;;;;;;15.39;98.77;99758.41;5051887;28;20211;-77
2022/09/09 05:33:23;;;;;;;1.83;1.20;;;;;;;15.44;98.71;99753.75;5052020;28;20206;-77
2022/09/09 05:35:57;;;;;;;3.03;1.67;;;;;;;15.48;98.66;99753.53;5051781;28;20201;-77
2022/09/09 05:38:25;;;;;;;4.10;1.27;;;;;;;15.49;98.47;99763.13;5051984;28;20186;-77
2022/09/09 05:40:52;;;;;;;1.80;1.33;;;;;;;15.56;98.47;99765.44;5051762;28;20567;-77
2022/09/09 05:43:18;;;;;;;4.20;1.40;;;;;;;15.63;98.32;99772.09;5051820;28;20209;-76
2022/09/09 05:45:47;;;;;;;1.90;1.10;;;;;;;15.64;98.89;99763.28;5051725;28;20640;-78
2022/09/09 05:48:14;;;;;;;2.67;1.53;;;;;;;15.63;97.29;99788.72;5051718;28;20615;-78
2022/09/09 05:50:41;;;;;;;3.40;1.10;;;;;;;15.70;97.18;99797.19;5051958;28;20205;-78
2022/09/09 05:53:09;;;;;;;2.87;1.60;;;;;;;15.65;96.77;99810.56;5051896;28;20213;-78
2022/09/09 05:55:35;;;;;;;1.57;1.10;;;;;;;15.70;97.10;99807.72;5051671;28;20317;-77
2022/09/09 05:58:02;;;;;;;2.67;1.30;;;;;;;15.76;96.72;99817.97;5052822;28;20259;-78
2022/09/09 06:00:31;;;;;;;2.23;1.20;;;;;;;15.80;95.89;99842.34;5056246;28;20221;-78
2022/09/09 06:02:57;;;;;;;3.97;1.20;;;;;;;15.82;96.17;99820.28;5055658;28;20665;-78
2022/09/09 06:05:27;;;;;;;6.03;1.80;;;;;;;15.79;95.51;99845.88;5055250;28;20283;-78
2022/09/09 06:07:53;;;;;;;2.83;1.30;;;;;;;15.79;94.75;99854.63;5055561;28;20675;-78
2022/09/09 06:10:21;;;;;;;2.20;1.43;;;;;;;15.85;94.19;99872.75;5055533;28;20254;-77
2022/09/09 06:12:54;;;;;;;4.43;1.77;;;;;;;15.91;94.71;99868.09;5035660;28;20384;-78
2022/09/09 06:15:20;;;;;;;1.53;1.20;;;;;;;15.98;95.00;99864.25;5035254;28;20674;-77
2022/09/09 06:17:47;;;;;;;2.27;1.47;;;;;;;16.00;97.24;99820.28;5035401;28;20202;-77
2022/09/09 06:20:14;;;;;;;2.33;1.50;;;;;;;16.07;96.85;99821.63;5035756;28;20217;-78
2022/09/09 06:22:41;;;;;;;4.03;1.70;;;;;;;16.12;96.28;99830.16;5038694;28;20594;-78
2022/09/09 06:25:09;;;;;;;3.37;1.40;;;;;;;16.17;96.50;99828.13;5049304;28;20228;-78
2022/09/09 06:27:37;;;;;;;3.77;2.10;;;;;;;16.21;96.91;99810.38;5046732;28;20194;-78
2022/09/09 06:30:04;;;;;;;2.07;1.30;;;;;;;16.27;97.51;99800.41;5045088;28;20202;-78
2022/09/09 06:32:31;;;;;;;1.83;1.17;;;;;;;16.33;96.75;99809.75;5046283;28;20206;-77
2022/09/09 06:34:58;;;;;;;2.00;1.57;;;;;;;16.44;96.55;99814.47;5045197;28;20642;-78
2022/09/09 06:37:25;;;;;;;4.13;1.50;;;;;;;16.35;97.23;99794.75;5045159;28;20203;-78
2022/09/09 06:39:52;;;;;;;2.50;1.90;;;;;;;16.41;96.87;99819.88;5049824;28;20570;-77
2022/09/09 06:42:18;;;;;;;2.77;1.50;;;;;;;16.44;94.66;99844.28;5047350;28;20257;-78
2022/09/09 06:44:46;;;;;;;2.43;1.50;;;;;;;16.55;95.59;99837.59;5043685;28;20279;-77
2022/09/09 06:47:12;;;;;;;2.93;1.10;;;;;;;16.55;92.56;99898.19;5045406;28;20204;-78
2022/09/09 06:49:39;;;;;;;2.17;1.30;;;;;;;16.60;92.54;99912.81;5043975;28;20552;-78
2022/09/09 06:52:06;;;;;;;1.40;1.30;;;;;;;16.70;93.82;99883.34;5044024;28;20205;-77
2022/09/09 06:54:32;;;;;;;2.47;1.50;;;;;;;16.67;93.01;99872.06;5052611;28;20308;-77
2022/09/09 06:57:00;;;;;;;3.47;1.30;;;;;;;16.71;93.78;99875.38;5043625;28;20210;-77
2022/09/09 06:59:27;;;;;;;2.40;0.80;;;;;;;16.70;91.29;99909.72;5043276;28;20199;-78
2022/09/09 07:01:54;;;;;;;2.43;1.33;;;;;;;16.80;90.99;99932.00;5045593;28;20225;-81
2022/09/09 07:04:21;;;;;;;2.40;1.40;;;;;;;16.80;95.07;99876.66;5049182;28;20220;-79
2022/09/09 07:06:47;;;;;;;1.70;1.40;;;;;;;16.70;92.91;99886.84;5044151;28;20260;-76
2022/09/09 07:09:16;;;;;;;4.33;1.43;;;;;;;16.64;88.57;99980.25;5047560;28;20260;-76
2022/09/09 07:11:44;;;;;;;1.13;0.90;;;;;;;16.76;88.44;100009.53;5048503;28;20580;-78
2022/09/09 07:14:12;;;;;;;2.43;1.50;;;;;;;16.74;91.47;99951.63;5043073;28;20574;-78
2022/09/09 07:16:39;;;;;;;1.20;1.10;;;;;;;16.76;88.93;99988.47;5044217;28;20231;-78
2022/09/09 07:19:07;;;;;;;1.20;1.10;;;;;;;16.88;89.32;99990.47;5044376;28;20203;-78
2022/09/09 07:21:34;;;;;;;2.30;1.43;;;;;;;16.95;90.69;99964.66;5042720;28;20230;-77
2022/09/09 07:24:01;;;;;;;1.30;1.10;;;;;;;16.97;89.75;99971.56;5044169;28;20484;-78
2022/09/09 07:26:29;;;;;;;3.20;1.13;;;;;;;16.97;88.68;99992.66;5044096;28;20312;-79
2022/09/09 07:28:56;;;;;;;4.97;1.20;;;;;;;16.91;86.74;100031.66;5044705;28;20216;-79
2022/09/09 07:31:25;;;;;;;2.53;1.30;;;;;;;16.88;85.50;100075.69;5042317;28;20210;-78
2022/09/09 07:33:52;;;;;;;6.37;1.10;;;;;;;17.02;86.29;100068.88;5044684;28;20228;-79
2022/09/09 07:36:22;;;;;;;1.63;1.13;;;;;;;17.08;87.18;100050.09;5043288;28;20244;-78
2022/09/09 07:38:51;;;;;;;1.60;1.03;;;;;;;17.14;87.20;100039.22;5045151;28;20208;-79
2022/09/09 07:41:20;;;;;;;3.67;1.40;;;;;;;17.13;85.84;100050.72;5048088;28;20203;-78
2022/09/09 07:43:48;;;;;;;4.57;1.00;;;;;;;17.11;86.03;100059.63;5044052;28;20218;-78
2022/09/09 07:46:16;;;;;;;1.30;1.10;;;;;;;17.13;85.87;100081.50;5044463;28;20223;-79
2022/09/09 07:48:44;;;;;;;2.07;0.90;;;;;;;17.19;85.00;100089.94;5043462;28;20246;-78
2022/09/09 07:51:14;;;;;;;2.10;1.13;;;;;;;17.26;83.65;100117.72;5042362;28;20204;-79
2022/09/09 07:53:42;;;;;;;2.00;1.00;;;;;;;17.42;83.49;100143.28;5043357;28;20227;-78
2022/09/09 07:56:11;;;;;;;3.33;1.07;;;;;;;17.43;83.29;100129.19;5043733;28;20653;-77
2022/09/09 07:58:38;;;;;;;2.30;1.20;;;;;;;17.51;84.50;100123.50;5044165;28;20197;-79
2022/09/09 08:01:11;;;;;;;3.13;1.40;;;;;;;17.50;85.26;100113.88;5043213;28;20206;-78
2022/09/09 08:03:38;;;;;;;1.50;0.97;;;;;;;17.61;84.00;100112.34;5044046;28;20302;-78
2022/09/09 08:06:07;;;;;;;1.80;0.97;;;;;;;17.60;82.83;100160.81;5040171;28;20304;-78
2022/09/09 08:08:33;;;;;;;2.23;1.30;;;;;;;17.63;85.12;100091.16;5044447;28;20284;-77
2022/09/09 08:11:07;;;;;;;2.37;1.13;;;;;;;17.60;82.57;100152.91;5049672;28;20333;-78
2022/09/09 08:13:34;;;;;;;2.03;1.00;;;;;;;17.64;83.29;100145.66;5041817;28;20226;-78
2022/09/09 08:16:11;;;;;;;1.47;1.30;;;;;;;17.82;84.98;100106.88;5042823;28;20195;-77
2022/09/09 08:18:38;;;;;;;1.97;1.10;;;;;;;17.94;84.83;100086.88;5041950;28;20204;-78
2022/09/09 08:21:11;;;;;;;2.13;1.10;;;;;;;17.99;81.94;100161.44;5045413;28;20286;-80
2022/09/09 08:23:38;;;;;;;4.50;1.20;;;;;;;18.02;80.45;100199.09;5044351;28;20276;-78
2022/09/09 08:26:10;;;;;;;2.30;0.97;;;;;;;18.02;79.79;100212.31;5042697;28;20229;-78
2022/09/09 08:28:36;;;;;;;2.27;1.57;;;;;;;17.96;79.95;100236.41;5044037;28;20235;-77
2022/09/09 08:31:12;;;;;;;2.87;1.13;;;;;;;18.12;81.34;100203.91;5045188;28;20201;-81
2022/09/09 08:33:39;;;;;;;1.07;0.90;;;;;;;18.10;79.36;100248.88;5049255;28;20252;-81
2022/09/09 08:36:07;;;;;;;1.47;0.80;;;;;;;18.22;79.42;100252.66;5052426;28;20200;-84
2022/09/09 08:38:33;;;;;;;2.50;1.00;;;;;;;18.31;80.58;100215.16;5051204;28;20278;-83
2022/09/09 08:41:14;;;;;;;2.83;1.10;;;;;;;18.46;81.26;100187.03;5057187;28;20201;-86
2022/09/09 08:43:44;;;;;;;2.20;1.30;;;;;;;18.48;82.53;100157.88;5051503;28;20227;-84
2022/09/09 08:46:17;;;;;;;2.00;0.90;;;;;;;18.59;80.98;100174.84;5048759;28;20245;-84
2022/09/09 08:48:56;;;;;;;1.37;1.13;;;;;;;18.73;78.95;100241.94;5048571;28;20600;-83
2022/09/09 08:51:26;;;;;;;1.90;0.90;;;;;;;18.83;77.08;100298.72;5049785;28;20206;-83
2022/09/09 08:53:54;;;;;;;1.03;0.90;;;;;;;18.98;77.90;100281.13;5045958;28;20269;-79
2022/09/09 08:56:24;;;;;;;4.67;1.00;;;;;;;19.08;76.59;100332.56;5042153;28;20203;-79
2022/09/09 08:58:53;;;;;;;2.30;0.90;;;;;;;19.11;74.95;100373.88;5041688;28;20299;-79
2022/09/09 09:01:35;;;;;;;3.30;1.07;;;;;;;19.19;76.22;100351.34;5045738;28;20246;-79
2022/09/09 09:04:08;;;;;;;2.83;1.20;;;;;;;19.20;74.92;100386.59;5045716;28;20253;-77
2022/09/09 09:06:49;;;;;;;2.07;1.03;;;;;;;19.18;74.45;100401.72;5045428;28;20241;-79
2022/09/09 09:09:22;;;;;;;3.37;1.13;;;;;;;19.18;74.68;100404.34;5049509;28;20212;-79
2022/09/09 09:11:53;;;;;;;4.43;1.00;;;;;;;19.21;74.55;100369.78;5043104;28;20259;-80
2022/09/09 09:14:23;;;;;;;1.87;1.10;;;;;;;19.10;73.64;100385.41;5044694;28;20225;-78
2022/09/09 09:16:53;;;;;;;1.50;1.00;;;;;;;19.23;75.56;100355.53;5043947;28;20649;-79
2022/09/09 09:19:22;;;;;;;2.17;1.00;;;;;;;19.39;75.32;100342.28;5046034;28;20215;-78
2022/09/09 09:21:54;;;;;;;3.27;0.90;;;;;;;19.51;74.38;100363.69;5042194;28;20207;-77
2022/09/09 09:24:24;;;;;;;3.03;0.93;;;;;;;19.63;73.76;100366.47;5043204;28;20763;-78
2022/09/09 09:26:52;;;;;;;1.47;0.90;;;;;;;19.69;73.59;100404.16;5043184;28;20694;-78
2022/09/09 09:29:21;;;;;;;2.40;0.90;;;;;;;19.68;71.46;100453.59;5042200;28;20325;-80
2022/09/09 09:31:52;;;;;;;1.67;1.30;;;;;;;19.71;71.32;100455.25;5042259;28;20282;-79
2022/09/09 09:34:20;;;;;;;1.40;0.80;;;;;;;19.76;71.88;100445.25;5047138;28;20270;-83
2022/09/09 09:36:54;;;;;;;1.37;0.97;;;;;;;19.91;72.91;100404.63;5049165;28;20196;-83
2022/09/09 09:39:25;;;;;;;2.57;0.70;;;;;;;20.05;72.62;100403.81;5048069;28;20204;-79
2022/09/09 09:41:54;;;;;;;1.70;1.00;;;;;;;20.06;72.29;100407.31;5048705;28;20209;-78
2022/09/09 09:44:25;;;;;;;2.33;1.17;;;;;;;20.11;72.21;100413.22;5046202;28;20222;-78
2022/09/09 09:46:51;;;;;;;1.87;0.87;;;;;;;20.19;72.26;100395.06;5045730;28;20231;-80
2022/09/09 09:49:18;;;;;;;1.87;0.90;;;;;;;20.24;71.99;100414.19;5046886;28;20641;-78
2022/09/09 09:51:44;;;;;;;5.63;1.10;;;;;;;20.26;71.03;100419.38;5048806;28;20209;-80
2022/09/09 09:54:19;;;;;;;1.77;1.10;;;;;;;20.34;70.87;100418.00;5044770;28;20226;-81
2022/09/09 09:56:47;;;;;;;2.73;1.00;;;;;;;20.39;68.95;100487.50;5045643;28;20193;-79
2022/09/09 09:59:34;;;;;;;2.73;0.80;;;;;;;20.27;68.00;100529.78;5048075;28;20206;-80
2022/09/09 10:02:18;;;;;;;1.23;0.70;;;;;;;19.84;67.14;100533.97;5046997;28;20204;-81
2022/09/09 10:04:46;;;;;;;1.70;0.73;;;;;;;19.80;69.00;100507.72;5046474;28;20226;-79
2022/09/09 10:07:13;;;;;;;2.23;1.10;;;;;;;19.69;69.18;100484.44;5046278;28;20716;-80
2022/09/09 10:09:41;;;;;;;1.63;1.10;;;;;;;19.78;71.60;100423.06;5050739;28;20226;-80
2022/09/09 10:12:24;;;;;;;1.83;0.90;;;;;;;19.78;70.36;100425.69;5049985;28;20286;-80
2022/09/09 10:15:01;;;;;;;3.33;1.10;;;;;;;19.88;70.69;100388.06;5048055;28;20222;-80
2022/09/09 10:17:37;;;;;;;2.27;0.73;;;;;;;19.89;69.99;100406.53;5052710;28;20205;-80
2022/09/09 10:20:20;;;;;;;3.67;1.03;;;;;;;20.02;69.55;100412.81;5049734;28;20200;-80
2022/09/09 10:22:52;;;;;;;3.03;1.03;;;;;;;20.15;69.57;100425.34;5047607;28;20646;-81
2022/09/09 10:25:39;;;;;;;3.33;0.80;;;;;;;20.23;69.51;100442.47;5047677;28;20220;-80
2022/09/09 10:28:33;;;;;;;1.63;1.00;;;;;;;20.44;67.68;100439.50;5037584;28;20287;-81
2022/09/09 10:31:17;;;;;;;1.07;0.90;;;;;;;20.59;63.51;100599.53;5037510;28;20217;-80
2022/09/09 10:33:51;;;;;;;1.77;0.77;;;;;;;20.76;62.80;100689.63;5037495;28;20234;-80
2022/09/09 10:36:21;;;;;;;2.53;0.83;;;;;;;20.68;61.08;100725.50;5036705;28;20557;-79
2022/09/09 10:38:50;;;;;;;1.77;0.60;;;;;;;20.73;62.20;100721.66;5035861;28;20215;-81
2022/09/09 10:41:21;;;;;;;1.37;0.80;;;;;;;20.76;64.32;100662.25;5046492;28;20197;-80
2022/09/09 10:44:06;;;;;;;3.10;0.80;;;;;;;20.84;61.63;100702.44;5046676;28;20221;-80
2022/09/09 10:46:47;;;;;;;1.30;0.60;;;;;;;20.85;58.60;100782.91;5053722;28;20220;-79
2022/09/09 10:49:27;;;;;;;1.60;0.47;;;;;;;20.98;58.11;100810.47;5058525;28;20215;-79
2022/09/09 10:52:02;;;;;;;0.93;0.50;;;;;;;21.04;58.52;100796.84;5060387;28;20227;-78
2022/09/09 10:54:40;;;;;;;2.00;0.50;;;;;;;20.96;59.13;100785.81;5059752;28;20283;-80
2022/09/09 10:57:16;;;;;;;2.47;0.93;;;;;;;21.03;61.08;100764.13;5050826;28;20731;-80
2022/09/09 10:59:46;;;;;;;2.63;0.67;;;;;;;21.10;59.48;100719.50;5049835;28;20236;-80
2022/09/09 11:02:19;;;;;;;1.10;0.73;;;;;;;21.10;59.27;100743.41;5047781;28;20204;-79
2022/09/09 11:04:50;;;;;;;1.93;0.70;;;;;;;21.09;59.49;100725.78;5047704;28;20267;-79
2022/09/09 11:07:26;;;;;;;1.00;0.80;;;;;;;20.97;61.75;100678.69;5045787;28;20208;-79
2022/09/09 11:09:59;;;;;;;2.63;0.77;;;;;;;20.93;61.91;100642.66;5054823;28;20787;-78
2022/09/09 11:12:28;;;;;;;1.93;0.70;;;;;;;20.92;61.87;100617.94;5047547;28;20215;-78
2022/09/09 11:15:00;;;;;;;1.37;0.73;;;;;;;20.84;63.00;100598.97;5047652;28;20229;-78
2022/09/09 11:17:37;;;;;;;2.50;0.97;;;;;;;20.80;63.67;100573.56;5053169;28;20249;-78
2022/09/09 11:20:06;;;;;;;2.33;0.90;;;;;;;20.73;64.05;100520.03;5056095;28;20200;-78
2022/09/09 11:22:38;;;;;;;2.13;0.80;;;;;;;20.69;64.02;100518.47;5056648;28;20235;-79
2022/09/09 11:25:11;;;;;;;1.60;0.70;;;;;;;20.71;64.52;100521.03;5053826;28;20233;-78
2022/09/09 11:27:55;;;;;;;1.53;0.70;;;;;;;20.74;65.17;100505.78;5055952;28;20275;-79
2022/09/09 11:30:24;;;;;;;3.40;1.20;;;;;;;20.76;64.46;100513.66;5056435;28;20672;-78
2022/09/09 11:33:17;;;;;;;0.87;0.70;;;;;;;20.60;62.83;100594.16;5055851;28;20248;-78
2022/09/09 11:35:55;;;;;;;4.03;0.87;;;;;;;20.61;63.22;100595.00;5054169;28;20753;-79
2022/09/09 11:38:27;;;;;;;1.57;0.60;;;;;;;20.60;65.01;100525.19;5054366;28;20205;-79
2022/09/09 11:40:59;;;;;;;1.17;0.60;;;;;;;20.46;65.16;100506.56;5054857;28;20211;-78
2022/09/09 11:43:30;;;;;;;1.50;0.60;;;;;;;20.08;67.10;100488.47;5055264;28;20698;-78